createdAt,value
2019-03-29T00:00:32.085Z,1024.28
2019-03-29T00:01:31.014Z,1024.31
2019-03-29T00:02:31.009Z,1024.27
2019-03-29T00:03:31.008Z,1024.29
2019-03-29T00:04:31.001Z,1024.28
2019-03-29T00:05:30.994Z,1024.26
2019-03-29T00:06:30.991Z,1024.29
2019-03-29T00:07:39.615Z,1024.27
2019-03-29T00:08:30.980Z,1024.30
2019-03-29T00:09:30.976Z,1024.28
2019-03-29T00:10:30.971Z,1024.29
2019-03-29T00:11:30.966Z,1024.26
2019-03-29T00:12:31.060Z,1024.24
2019-03-29T00:13:30.955Z,1024.24
2019-03-29T00:14:30.951Z,1024.24
2019-03-29T00:15:30.946Z,1024.23
2019-03-29T00:16:30.956Z,1024.22
2019-03-29T00:17:30.936Z,1024.22
2019-03-29T00:18:30.930Z,1024.18
2019-03-29T00:19:30.924Z,1024.16
2019-03-29T00:20:30.920Z,1024.18
2019-03-29T00:21:30.913Z,1024.16
2019-03-29T00:22:31.009Z,1024.13
2019-03-29T00:23:30.903Z,1024.14
2019-03-29T00:24:30.898Z,1024.11
2019-03-29T00:25:30.893Z,1024.10
2019-03-29T00:26:30.887Z,1024.09
2019-03-29T00:27:30.881Z,1024.10
2019-03-29T00:28:30.877Z,1024.08
2019-03-29T00:29:30.870Z,1024.09
2019-03-29T00:30:30.865Z,1024.05
2019-03-29T00:31:30.860Z,1024.02
2019-03-29T00:32:31.248Z,1024.06
2019-03-29T00:33:30.849Z,1024.00
2019-03-29T00:34:30.845Z,1024.02
2019-03-29T00:35:30.844Z,1024.01
2019-03-29T00:36:30.834Z,1023.95
2019-03-29T00:37:30.828Z,1023.97
2019-03-29T00:38:30.823Z,1023.93
2019-03-29T00:39:30.817Z,1023.90
2019-03-29T00:40:30.812Z,1023.91
2019-03-29T00:41:30.805Z,1023.91
2019-03-29T00:42:30.800Z,1023.88
2019-03-29T00:43:30.793Z,1023.85
2019-03-29T00:44:30.789Z,1023.90
2019-03-29T00:45:30.784Z,1023.87
2019-03-29T00:46:30.778Z,1023.85
2019-03-29T00:47:30.791Z,1023.84
2019-03-29T00:48:30.766Z,1023.80
2019-03-29T00:49:30.760Z,1023.77
2019-03-29T00:50:30.756Z,1023.78
2019-03-29T00:51:30.749Z,1023.80
2019-03-29T00:52:30.743Z,1023.79
2019-03-29T00:53:30.738Z,1023.76
2019-03-29T00:54:30.731Z,1023.75
2019-03-29T00:55:30.726Z,1023.70
2019-03-29T00:56:30.721Z,1023.68
2019-03-29T00:57:30.978Z,1023.65
2019-03-29T00:58:30.708Z,1023.65
2019-03-29T00:59:30.703Z,1023.62
2019-03-29T01:00:31.641Z,1023.66
2019-03-29T01:01:30.690Z,1023.60
2019-03-29T01:02:30.685Z,1023.65
2019-03-29T01:03:30.680Z,1023.61
2019-03-29T01:04:30.673Z,1023.62
2019-03-29T01:05:30.667Z,1023.60
2019-03-29T01:06:30.661Z,1023.54
2019-03-29T01:07:30.923Z,1023.53
2019-03-29T01:08:30.651Z,1023.53
2019-03-29T01:09:30.867Z,1023.57
2019-03-29T01:10:30.638Z,1023.55
2019-03-29T01:11:30.632Z,1023.54
2019-03-29T01:12:30.626Z,1023.52
2019-03-29T01:13:30.618Z,1023.48
2019-03-29T01:14:30.613Z,1023.49
2019-03-29T01:15:30.608Z,1023.48
2019-03-29T01:16:30.602Z,1023.44
2019-03-29T01:17:30.595Z,1023.44
2019-03-29T01:18:30.590Z,1023.39
2019-03-29T01:19:30.583Z,1023.42
2019-03-29T01:20:30.578Z,1023.38
2019-03-29T01:21:30.571Z,1023.42
2019-03-29T01:22:31.324Z,1023.43
2019-03-29T01:23:30.558Z,1023.37
2019-03-29T01:24:30.553Z,1023.41
2019-03-29T01:25:30.547Z,1023.41
2019-03-29T01:26:30.542Z,1023.44
2019-03-29T01:27:30.535Z,1023.40
2019-03-29T01:28:30.530Z,1023.40
2019-03-29T01:29:31.033Z,1023.42
2019-03-29T01:30:30.529Z,1023.43
2019-03-29T01:31:30.511Z,1023.39
2019-03-29T01:32:30.505Z,1023.42
2019-03-29T01:33:30.499Z,1023.34
2019-03-29T01:34:30.493Z,1023.32
2019-03-29T01:35:30.489Z,1023.30
2019-03-29T01:36:30.481Z,1023.29
2019-03-29T01:37:30.471Z,1023.24
2019-03-29T01:38:30.466Z,1023.25
2019-03-29T01:39:30.463Z,1023.26
2019-03-29T01:40:30.455Z,1023.22
2019-03-29T01:41:30.448Z,1023.26
2019-03-29T01:42:30.443Z,1023.26
2019-03-29T01:43:30.436Z,1023.28
2019-03-29T01:44:30.430Z,1023.28
2019-03-29T01:45:30.422Z,1023.28
2019-03-29T01:46:30.417Z,1023.26
2019-03-29T01:47:30.410Z,1023.27
2019-03-29T01:48:30.405Z,1023.25
2019-03-29T01:49:30.400Z,1023.26
2019-03-29T01:50:30.391Z,1023.24
2019-03-29T01:51:30.385Z,1023.21
2019-03-29T01:52:31.580Z,1023.23
2019-03-29T01:53:30.371Z,1023.24
2019-03-29T01:54:30.397Z,1023.21
2019-03-29T01:55:30.359Z,1023.23
2019-03-29T01:56:30.353Z,1023.20
2019-03-29T01:57:30.345Z,1023.15
2019-03-29T01:58:30.340Z,1023.22
2019-03-29T01:59:30.341Z,1023.12
2019-03-29T02:00:30.326Z,1023.13
2019-03-29T02:01:30.321Z,1023.11
2019-03-29T02:02:30.313Z,1023.13
2019-03-29T02:03:30.307Z,1023.13
2019-03-29T02:04:30.302Z,1023.12
2019-03-29T02:05:30.297Z,1023.09
2019-03-29T02:06:30.288Z,1023.06
2019-03-29T02:07:30.281Z,1023.05
2019-03-29T02:08:35.579Z,1022.98
2019-03-29T02:09:30.945Z,1022.96
2019-03-29T02:10:30.262Z,1023.00
2019-03-29T02:11:30.256Z,1023.00
2019-03-29T02:12:30.250Z,1022.99
2019-03-29T02:13:30.243Z,1022.97
2019-03-29T02:14:30.237Z,1022.95
2019-03-29T02:15:30.230Z,1022.98
2019-03-29T02:16:30.223Z,1022.97
2019-03-29T02:17:30.217Z,1022.99
2019-03-29T02:18:30.209Z,1022.97
2019-03-29T02:19:30.206Z,1022.97
2019-03-29T02:20:30.200Z,1022.99
2019-03-29T02:21:30.189Z,1022.91
2019-03-29T02:22:30.183Z,1022.97
2019-03-29T02:23:30.226Z,1022.89
2019-03-29T02:24:30.169Z,1022.88
2019-03-29T02:25:30.166Z,1022.85
2019-03-29T02:26:30.157Z,1022.81
2019-03-29T02:27:30.149Z,1022.83
2019-03-29T02:28:30.143Z,1022.83
2019-03-29T02:29:30.136Z,1022.79
2019-03-29T02:30:31.986Z,1022.85
2019-03-29T02:31:30.131Z,1022.80
2019-03-29T02:32:30.121Z,1022.85
2019-03-29T02:33:30.115Z,1022.83
2019-03-29T02:34:30.103Z,1022.82
2019-03-29T02:35:30.099Z,1022.85
2019-03-29T02:36:30.096Z,1022.81
2019-03-29T02:37:30.084Z,1022.79
2019-03-29T02:38:30.078Z,1022.79
2019-03-29T02:39:30.070Z,1022.80
2019-03-29T02:40:30.087Z,1022.81
2019-03-29T02:41:30.056Z,1022.77
2019-03-29T02:42:30.052Z,1022.77
2019-03-29T02:43:30.053Z,1022.77
2019-03-29T02:44:30.039Z,1022.79
2019-03-29T02:45:30.772Z,1022.80
2019-03-29T02:46:30.025Z,1022.81
2019-03-29T02:47:30.018Z,1022.81
2019-03-29T02:48:30.010Z,1022.81
2019-03-29T02:49:30.008Z,1022.80
2019-03-29T02:50:29.997Z,1022.78
2019-03-29T02:51:29.994Z,1022.80
2019-03-29T02:52:29.983Z,1022.76
2019-03-29T02:53:29.976Z,1022.79
2019-03-29T02:54:29.970Z,1022.78
2019-03-29T02:55:29.964Z,1022.79
2019-03-29T02:56:29.957Z,1022.71
2019-03-29T02:57:29.949Z,1022.75
2019-03-29T02:58:29.946Z,1022.73
2019-03-29T02:59:29.937Z,1022.76
2019-03-29T03:00:29.930Z,1022.76
2019-03-29T03:01:29.924Z,1022.74
2019-03-29T03:02:29.916Z,1022.74
2019-03-29T03:03:29.910Z,1022.76
2019-03-29T03:04:29.912Z,1022.74
2019-03-29T03:05:29.894Z,1022.73
2019-03-29T03:06:29.890Z,1022.72
2019-03-29T03:07:29.882Z,1022.72
2019-03-29T03:08:32.898Z,1022.72
2019-03-29T03:09:29.868Z,1022.70
2019-03-29T03:10:29.860Z,1022.72
2019-03-29T03:11:29.861Z,1022.73
2019-03-29T03:12:29.848Z,1022.72
2019-03-29T03:13:29.839Z,1022.73
2019-03-29T03:14:29.834Z,1022.76
2019-03-29T03:15:29.827Z,1022.79
2019-03-29T03:16:29.823Z,1022.74
2019-03-29T03:17:29.818Z,1022.71
2019-03-29T03:18:29.811Z,1022.73
2019-03-29T03:19:29.800Z,1022.69
2019-03-29T03:20:29.792Z,1022.68
2019-03-29T03:21:29.787Z,1022.67
2019-03-29T03:22:29.779Z,1022.72
2019-03-29T03:23:29.772Z,1022.70
2019-03-29T03:24:29.773Z,1022.72
2019-03-29T03:25:29.757Z,1022.74
2019-03-29T03:26:29.754Z,1022.76
2019-03-29T03:27:29.746Z,1022.76
2019-03-29T03:28:29.736Z,1022.75
2019-03-29T03:29:29.730Z,1022.77
2019-03-29T03:30:29.724Z,1022.75
2019-03-29T03:31:29.718Z,1022.73
2019-03-29T03:32:29.712Z,1022.75
2019-03-29T03:33:29.714Z,1022.74
2019-03-29T03:34:29.696Z,1022.76
2019-03-29T03:35:29.689Z,1022.75
2019-03-29T03:36:29.683Z,1022.80
2019-03-29T03:37:29.674Z,1022.75
2019-03-29T03:38:29.667Z,1022.79
2019-03-29T03:39:32.235Z,1022.78
2019-03-29T03:40:29.687Z,1022.76
2019-03-29T03:41:29.645Z,1022.75
2019-03-29T03:42:29.638Z,1022.78
2019-03-29T03:43:29.663Z,1022.72
2019-03-29T03:44:29.625Z,1022.76
2019-03-29T03:45:29.619Z,1022.71
2019-03-29T03:46:29.622Z,1022.75
2019-03-29T03:47:29.605Z,1022.74
2019-03-29T03:48:29.600Z,1022.75
2019-03-29T03:49:29.590Z,1022.65
2019-03-29T03:50:29.585Z,1022.69
2019-03-29T03:51:29.576Z,1022.74
2019-03-29T03:52:29.570Z,1022.73
2019-03-29T03:53:29.562Z,1022.74
2019-03-29T03:54:29.555Z,1022.72
2019-03-29T03:55:29.550Z,1022.77
2019-03-29T03:56:29.542Z,1022.78
2019-03-29T03:57:29.535Z,1022.77
2019-03-29T03:58:29.530Z,1022.78
2019-03-29T03:59:29.582Z,1022.76
2019-03-29T04:00:29.514Z,1022.76
2019-03-29T04:01:29.507Z,1022.73
2019-03-29T04:02:29.499Z,1022.71
2019-03-29T04:03:29.494Z,1022.76
2019-03-29T04:04:29.485Z,1022.67
2019-03-29T04:05:29.477Z,1022.70
2019-03-29T04:06:29.474Z,1022.65
2019-03-29T04:07:29.464Z,1022.68
2019-03-29T04:08:29.459Z,1022.64
2019-03-29T04:09:29.451Z,1022.64
2019-03-29T04:10:29.443Z,1022.63
2019-03-29T04:11:29.435Z,1022.66
2019-03-29T04:12:29.427Z,1022.69
2019-03-29T04:13:29.422Z,1022.65
2019-03-29T04:14:29.413Z,1022.67
2019-03-29T04:15:29.405Z,1022.71
2019-03-29T04:16:29.399Z,1022.69
2019-03-29T04:17:29.396Z,1022.66
2019-03-29T04:18:29.390Z,1022.66
2019-03-29T04:19:29.379Z,1022.64
2019-03-29T04:20:29.372Z,1022.65
2019-03-29T04:21:29.365Z,1022.63
2019-03-29T04:22:29.380Z,1022.67
2019-03-29T04:23:29.349Z,1022.68
2019-03-29T04:24:29.347Z,1022.70
2019-03-29T04:25:29.337Z,1022.64
2019-03-29T04:26:29.328Z,1022.69
2019-03-29T04:27:29.320Z,1022.65
2019-03-29T04:28:29.340Z,1022.62
2019-03-29T04:29:29.308Z,1022.67
2019-03-29T04:30:29.300Z,1022.65
2019-03-29T04:31:29.293Z,1022.60
2019-03-29T04:32:29.285Z,1022.60
2019-03-29T04:33:29.285Z,1022.65
2019-03-29T04:34:29.270Z,1022.62
2019-03-29T04:35:29.276Z,1022.62
2019-03-29T04:36:29.257Z,1022.64
2019-03-29T04:37:29.247Z,1022.61
2019-03-29T04:38:29.240Z,1022.59
2019-03-29T04:39:29.234Z,1022.58
2019-03-29T04:40:29.228Z,1022.56
2019-03-29T04:41:29.218Z,1022.55
2019-03-29T04:42:29.212Z,1022.57
2019-03-29T04:43:29.207Z,1022.56
2019-03-29T04:44:29.197Z,1022.58
2019-03-29T04:45:29.190Z,1022.60
2019-03-29T04:46:29.184Z,1022.57
2019-03-29T04:47:29.177Z,1022.60
2019-03-29T04:48:29.170Z,1022.56
2019-03-29T04:49:29.160Z,1022.59
2019-03-29T04:50:29.155Z,1022.59
2019-03-29T04:51:29.147Z,1022.61
2019-03-29T04:52:29.141Z,1022.60
2019-03-29T04:53:29.134Z,1022.61
2019-03-29T04:54:29.125Z,1022.58
2019-03-29T04:55:29.117Z,1022.62
2019-03-29T04:56:29.111Z,1022.60
2019-03-29T04:57:29.102Z,1022.60
2019-03-29T04:58:29.096Z,1022.60
2019-03-29T04:59:29.088Z,1022.61
2019-03-29T05:00:29.082Z,1022.62
2019-03-29T05:01:29.074Z,1022.61
2019-03-29T05:02:29.109Z,1022.54
2019-03-29T05:03:29.060Z,1022.55
2019-03-29T05:04:29.053Z,1022.56
2019-03-29T05:05:29.050Z,1022.55
2019-03-29T05:06:29.039Z,1022.57
2019-03-29T05:07:29.030Z,1022.58
2019-03-29T05:08:29.025Z,1022.61
2019-03-29T05:09:29.015Z,1022.63
2019-03-29T05:10:29.011Z,1022.56
2019-03-29T05:11:29.002Z,1022.58
2019-03-29T05:12:28.994Z,1022.57
2019-03-29T05:13:28.989Z,1022.57
2019-03-29T05:14:28.983Z,1022.56
2019-03-29T05:15:28.973Z,1022.52
2019-03-29T05:16:28.999Z,1022.53
2019-03-29T05:17:28.958Z,1022.54
2019-03-29T05:18:28.950Z,1022.57
2019-03-29T05:19:28.944Z,1022.56
2019-03-29T05:20:28.935Z,1022.55
2019-03-29T05:21:28.929Z,1022.52
2019-03-29T05:22:28.923Z,1022.54
2019-03-29T05:23:28.914Z,1022.54
2019-03-29T05:24:28.907Z,1022.56
2019-03-29T05:25:28.899Z,1022.56
2019-03-29T05:26:28.893Z,1022.56
2019-03-29T05:27:28.886Z,1022.58
2019-03-29T05:28:28.878Z,1022.55
2019-03-29T05:29:28.871Z,1022.57
2019-03-29T05:30:28.862Z,1022.53
2019-03-29T05:31:28.863Z,1022.56
2019-03-29T05:32:28.848Z,1022.58
2019-03-29T05:33:28.845Z,1022.59
2019-03-29T05:34:28.834Z,1022.52
2019-03-29T05:35:28.828Z,1022.54
2019-03-29T05:36:28.820Z,1022.51
2019-03-29T05:37:28.811Z,1022.52
2019-03-29T05:38:28.804Z,1022.52
2019-03-29T05:39:28.800Z,1022.49
2019-03-29T05:40:34.996Z,1022.47
2019-03-29T05:41:28.782Z,1022.45
2019-03-29T05:42:28.783Z,1022.47
2019-03-29T05:43:28.769Z,1022.45
2019-03-29T05:44:28.761Z,1022.43
2019-03-29T05:45:28.755Z,1022.45
2019-03-29T05:46:28.747Z,1022.40
2019-03-29T05:47:28.743Z,1022.45
2019-03-29T05:48:28.731Z,1022.43
2019-03-29T05:49:28.726Z,1022.45
2019-03-29T05:50:28.716Z,1022.42
2019-03-29T05:51:28.710Z,1022.44
2019-03-29T05:52:28.703Z,1022.40
2019-03-29T05:53:28.695Z,1022.45
2019-03-29T05:54:28.688Z,1022.47
2019-03-29T05:55:32.889Z,1022.45
2019-03-29T05:56:28.681Z,1022.46
2019-03-29T05:57:28.666Z,1022.44
2019-03-29T05:58:28.660Z,1022.44
2019-03-29T05:59:28.651Z,1022.44
2019-03-29T06:00:28.645Z,1022.47
2019-03-29T06:01:28.638Z,1022.47
2019-03-29T06:02:28.629Z,1022.50
2019-03-29T06:03:28.623Z,1022.46
2019-03-29T06:04:28.615Z,1022.46
2019-03-29T06:05:28.608Z,1022.48
2019-03-29T06:06:28.600Z,1022.42
2019-03-29T06:07:28.593Z,1022.45
2019-03-29T06:08:28.586Z,1022.43
2019-03-29T06:09:28.582Z,1022.46
2019-03-29T06:10:28.571Z,1022.47
2019-03-29T06:11:28.564Z,1022.49
2019-03-29T06:12:28.558Z,1022.45
2019-03-29T06:13:28.551Z,1022.49
2019-03-29T06:14:28.550Z,1022.52
2019-03-29T06:15:28.536Z,1022.47
2019-03-29T06:16:38.319Z,1022.48
2019-03-29T06:17:28.521Z,1022.48
2019-03-29T06:18:28.515Z,1022.46
2019-03-29T06:19:28.507Z,1022.50
2019-03-29T06:20:28.500Z,1022.49
2019-03-29T06:21:28.494Z,1022.52
2019-03-29T06:22:28.486Z,1022.53
2019-03-29T06:23:28.482Z,1022.51
2019-03-29T06:24:28.473Z,1022.55
2019-03-29T06:25:28.464Z,1022.58
2019-03-29T06:26:28.458Z,1022.57
2019-03-29T06:27:28.449Z,1022.50
2019-03-29T06:28:29.977Z,1022.51
2019-03-29T06:29:28.437Z,1022.52
2019-03-29T06:30:28.431Z,1022.51
2019-03-29T06:31:28.422Z,1022.51
2019-03-29T06:32:28.416Z,1022.51
2019-03-29T06:33:28.409Z,1022.51
2019-03-29T06:34:28.402Z,1022.49
2019-03-29T06:35:28.395Z,1022.50
2019-03-29T06:36:28.389Z,1022.47
2019-03-29T06:37:28.380Z,1022.51
2019-03-29T06:38:28.376Z,1022.53
2019-03-29T06:39:28.368Z,1022.53
2019-03-29T06:40:28.361Z,1022.46
2019-03-29T06:41:28.354Z,1022.43
2019-03-29T06:42:28.346Z,1022.43
2019-03-29T06:43:28.338Z,1022.48
2019-03-29T06:44:28.333Z,1022.45
2019-03-29T06:45:28.325Z,1022.45
2019-03-29T06:46:28.320Z,1022.42
2019-03-29T06:47:28.312Z,1022.44
2019-03-29T06:48:28.305Z,1022.42
2019-03-29T06:49:28.299Z,1022.39
2019-03-29T06:50:28.291Z,1022.49
2019-03-29T06:51:28.285Z,1022.49
2019-03-29T06:52:28.278Z,1022.44
2019-03-29T06:53:28.272Z,1022.46
2019-03-29T06:54:28.265Z,1022.41
2019-03-29T06:55:28.260Z,1022.42
2019-03-29T06:56:28.253Z,1022.46
2019-03-29T06:57:28.245Z,1022.46
2019-03-29T06:58:28.240Z,1022.43
2019-03-29T06:59:28.232Z,1022.48
2019-03-29T07:00:28.228Z,1022.42
2019-03-29T07:01:28.222Z,1022.41
2019-03-29T07:02:28.214Z,1022.45
2019-03-29T07:03:28.209Z,1022.45
2019-03-29T07:04:28.203Z,1022.41
2019-03-29T07:05:28.191Z,1022.41
2019-03-29T07:06:30.543Z,1022.39
2019-03-29T07:07:28.184Z,1022.35
2019-03-29T07:08:28.173Z,1022.35
2019-03-29T07:09:28.170Z,1022.32
2019-03-29T07:10:28.161Z,1022.32
2019-03-29T07:11:28.154Z,1022.37
2019-03-29T07:12:28.149Z,1022.37
2019-03-29T07:13:28.144Z,1022.36
2019-03-29T07:14:28.137Z,1022.37
2019-03-29T07:15:28.129Z,1022.37
2019-03-29T07:16:28.124Z,1022.37
2019-03-29T07:17:28.116Z,1022.36
2019-03-29T07:18:28.111Z,1022.37
2019-03-29T07:19:28.104Z,1022.36
2019-03-29T07:20:28.101Z,1022.35
2019-03-29T07:21:28.092Z,1022.33
2019-03-29T07:22:28.086Z,1022.38
2019-03-29T07:23:28.082Z,1022.35
2019-03-29T07:24:28.074Z,1022.36
2019-03-29T07:25:28.067Z,1022.38
2019-03-29T07:26:28.064Z,1022.42
2019-03-29T07:27:28.056Z,1022.40
2019-03-29T07:28:28.051Z,1022.44
2019-03-29T07:29:28.045Z,1022.44
2019-03-29T07:30:28.039Z,1022.43
2019-03-29T07:31:28.035Z,1022.46
2019-03-29T07:32:28.029Z,1022.44
2019-03-29T07:33:28.020Z,1022.44
2019-03-29T07:34:28.015Z,1022.46
2019-03-29T07:35:28.009Z,1022.48
2019-03-29T07:36:28.005Z,1022.37
2019-03-29T07:37:27.997Z,1022.45
2019-03-29T07:38:27.995Z,1022.41
2019-03-29T07:39:27.987Z,1022.45
2019-03-29T07:40:28.035Z,1022.44
2019-03-29T07:41:32.052Z,1022.45
2019-03-29T07:42:27.968Z,1022.43
2019-03-29T07:43:27.963Z,1022.43
2019-03-29T07:44:27.957Z,1022.49
2019-03-29T07:45:27.952Z,1022.49
2019-03-29T07:46:27.947Z,1022.50
2019-03-29T07:47:27.941Z,1022.54
2019-03-29T07:48:27.935Z,1022.52
2019-03-29T07:49:27.929Z,1022.54
2019-03-29T07:50:27.923Z,1022.48
2019-03-29T07:51:27.918Z,1022.51
2019-03-29T07:52:27.912Z,1022.46
2019-03-29T07:53:27.906Z,1022.43
2019-03-29T07:54:27.901Z,1022.43
2019-03-29T07:55:27.898Z,1022.41
2019-03-29T07:56:27.891Z,1022.43
2019-03-29T07:57:27.890Z,1022.43
2019-03-29T07:58:27.889Z,1022.45
2019-03-29T07:59:27.876Z,1022.41
2019-03-29T08:00:27.870Z,1022.42
2019-03-29T08:01:27.866Z,1022.45
2019-03-29T08:02:28.941Z,1022.45
2019-03-29T08:03:27.854Z,1022.43
2019-03-29T08:04:27.857Z,1022.44
2019-03-29T08:05:27.847Z,1022.44
2019-03-29T08:06:27.840Z,1022.38
2019-03-29T08:07:28.896Z,1022.43
2019-03-29T08:08:32.240Z,1022.40
2019-03-29T08:09:27.822Z,1022.43
2019-03-29T08:10:30.972Z,1022.51
2019-03-29T08:11:28.370Z,1022.50
2019-03-29T08:12:27.842Z,1022.53
2019-03-29T08:13:27.806Z,1022.51
2019-03-29T08:14:27.797Z,1022.55
2019-03-29T08:15:27.793Z,1022.55
2019-03-29T08:16:27.789Z,1022.56
2019-03-29T08:17:27.783Z,1022.54
2019-03-29T08:18:27.777Z,1022.54
2019-03-29T08:19:27.774Z,1022.53
2019-03-29T08:20:44.420Z,1022.55
2019-03-29T08:21:27.768Z,1022.53
2019-03-29T08:22:27.765Z,1022.52
2019-03-29T08:23:28.942Z,1022.52
2019-03-29T08:24:27.751Z,1022.51
2019-03-29T08:25:27.753Z,1022.52
2019-03-29T08:26:27.741Z,1022.52
2019-03-29T08:27:27.736Z,1022.55
2019-03-29T08:28:27.730Z,1022.54
2019-03-29T08:29:30.978Z,1022.53
2019-03-29T08:30:27.737Z,1022.51
2019-03-29T08:31:27.720Z,1022.49
2019-03-29T08:32:27.714Z,1022.50
2019-03-29T08:33:27.707Z,1022.55
2019-03-29T08:34:27.704Z,1022.56
2019-03-29T08:35:27.702Z,1022.55
2019-03-29T08:36:27.698Z,1022.56
2019-03-29T08:37:27.730Z,1022.55
2019-03-29T08:38:27.686Z,1022.50
2019-03-29T08:39:28.504Z,1022.55
2019-03-29T08:40:27.682Z,1022.53
2019-03-29T08:41:27.672Z,1022.57
2019-03-29T08:42:27.670Z,1022.57
2019-03-29T08:43:27.665Z,1022.55
2019-03-29T08:44:27.661Z,1022.62
2019-03-29T08:45:27.659Z,1022.59
2019-03-29T08:46:27.658Z,1022.63
2019-03-29T08:47:27.657Z,1022.60
2019-03-29T08:48:27.648Z,1022.55
2019-03-29T08:49:27.640Z,1022.55
2019-03-29T08:50:27.634Z,1022.58
2019-03-29T08:51:27.630Z,1022.56
2019-03-29T08:52:27.630Z,1022.61
2019-03-29T08:53:27.697Z,1022.67
2019-03-29T08:54:27.622Z,1022.85
2019-03-29T08:55:27.615Z,1023.05
2019-03-29T08:56:27.612Z,1023.20
2019-03-29T08:57:27.608Z,1023.20
2019-03-29T08:58:27.607Z,1023.19
2019-03-29T08:59:27.608Z,1023.15
2019-03-29T09:00:27.602Z,1023.26
2019-03-29T09:01:27.600Z,1023.25
2019-03-29T09:02:27.599Z,1023.31
2019-03-29T09:03:27.600Z,1023.29
2019-03-29T09:04:27.600Z,1023.22
2019-03-29T09:05:27.599Z,1023.29
2019-03-29T09:06:30.041Z,1023.29
2019-03-29T09:07:28.136Z,1023.29
2019-03-29T09:08:27.607Z,1023.27
2019-03-29T09:09:27.607Z,1023.33
2019-03-29T09:10:27.611Z,1023.30
2019-03-29T09:11:27.613Z,1023.31
2019-03-29T09:12:27.619Z,1023.34
2019-03-29T09:13:27.623Z,1023.29
2019-03-29T09:14:31.042Z,1023.30
2019-03-29T09:15:27.632Z,1023.26
2019-03-29T09:16:27.636Z,1023.21
2019-03-29T09:17:27.643Z,1023.25
2019-03-29T09:18:27.647Z,1023.28
2019-03-29T09:19:27.655Z,1023.27
2019-03-29T09:20:27.660Z,1023.29
2019-03-29T09:21:27.668Z,1023.27
2019-03-29T09:22:27.672Z,1023.29
2019-03-29T09:23:30.120Z,1023.25
2019-03-29T09:24:27.685Z,1023.30
2019-03-29T09:25:27.692Z,1023.26
2019-03-29T09:26:27.701Z,1023.26
2019-03-29T09:27:27.710Z,1023.26
2019-03-29T09:28:27.717Z,1023.25
2019-03-29T09:29:27.727Z,1023.26
2019-03-29T09:30:27.733Z,1023.24
2019-03-29T09:31:27.741Z,1023.21
2019-03-29T09:32:27.750Z,1023.26
2019-03-29T09:33:27.759Z,1023.26
2019-03-29T09:34:28.941Z,1023.24
2019-03-29T09:35:27.787Z,1023.24
2019-03-29T09:36:27.784Z,1023.26
2019-03-29T09:37:27.832Z,1023.23
2019-03-29T09:38:27.811Z,1023.23
2019-03-29T09:39:27.813Z,1023.19
2019-03-29T09:40:27.823Z,1023.22
2019-03-29T09:41:27.831Z,1023.21
2019-03-29T09:42:29.628Z,1023.18
2019-03-29T09:43:27.851Z,1023.17
2019-03-29T09:44:27.860Z,1023.17
2019-03-29T09:45:27.872Z,1023.17
2019-03-29T09:46:27.881Z,1023.10
2019-03-29T09:47:27.890Z,1023.12
2019-03-29T09:48:27.914Z,1023.08
2019-03-29T09:49:27.909Z,1023.11
2019-03-29T09:50:27.919Z,1023.07
2019-03-29T09:51:27.980Z,1023.10
2019-03-29T09:52:27.942Z,1023.10
2019-03-29T09:53:27.953Z,1023.06
2019-03-29T09:54:27.966Z,1023.09
2019-03-29T09:55:27.973Z,1023.05
2019-03-29T09:56:38.502Z,1023.03
2019-03-29T09:57:37.351Z,1023.03
2019-03-29T09:58:28.005Z,1023.04
2019-03-29T09:59:28.018Z,1023.04
2019-03-29T10:00:28.026Z,1023.01
2019-03-29T10:01:28.163Z,1023.03
2019-03-29T10:02:28.051Z,1023.01
2019-03-29T10:03:28.062Z,1023.02
2019-03-29T10:04:28.072Z,1023.05
2019-03-29T10:05:31.113Z,1023.03
2019-03-29T10:06:28.094Z,1023.06
2019-03-29T10:07:28.104Z,1023.07
2019-03-29T10:08:28.118Z,1023.05
2019-03-29T10:09:28.125Z,1023.00
2019-03-29T10:10:28.136Z,1022.96
2019-03-29T10:11:28.147Z,1022.96
2019-03-29T10:12:42.346Z,1023.00
2019-03-29T10:13:28.172Z,1022.93
2019-03-29T10:14:28.181Z,1022.92
2019-03-29T10:15:28.191Z,1022.90
2019-03-29T10:16:28.202Z,1022.84
2019-03-29T10:17:28.213Z,1022.86
2019-03-29T10:18:28.223Z,1022.77
2019-03-29T10:19:28.236Z,1022.77
2019-03-29T10:20:28.245Z,1022.79
2019-03-29T10:21:28.256Z,1022.80
2019-03-29T10:22:28.293Z,1022.80
2019-03-29T10:23:28.278Z,1022.78
2019-03-29T10:24:28.289Z,1022.74
2019-03-29T10:25:28.299Z,1022.71
2019-03-29T10:26:28.308Z,1022.66
2019-03-29T10:27:28.326Z,1022.64
2019-03-29T10:28:28.336Z,1022.61
2019-03-29T10:29:28.343Z,1022.61
2019-03-29T10:30:28.352Z,1022.65
2019-03-29T10:31:32.418Z,1022.64
2019-03-29T10:32:28.373Z,1022.61
2019-03-29T10:33:28.384Z,1022.60
2019-03-29T10:34:28.394Z,1022.58
2019-03-29T10:35:28.404Z,1022.51
2019-03-29T10:36:28.417Z,1022.52
2019-03-29T10:37:28.424Z,1022.47
2019-03-29T10:38:28.436Z,1022.44
2019-03-29T10:39:28.447Z,1022.42
2019-03-29T10:40:28.458Z,1022.41
2019-03-29T10:41:28.467Z,1022.43
2019-03-29T10:42:28.479Z,1022.43
2019-03-29T10:43:28.489Z,1022.39
2019-03-29T10:44:28.500Z,1022.33
2019-03-29T10:45:28.509Z,1022.23
2019-03-29T10:46:28.521Z,1022.19
2019-03-29T10:47:42.339Z,1022.18
2019-03-29T10:48:28.543Z,1022.14
2019-03-29T10:49:28.551Z,1022.07
2019-03-29T10:50:28.559Z,1022.05
2019-03-29T10:51:28.570Z,1021.97
2019-03-29T10:52:28.582Z,1021.93
2019-03-29T10:53:28.882Z,1021.90
2019-03-29T10:54:28.600Z,1021.78
2019-03-29T10:55:28.611Z,1021.82
2019-03-29T10:56:34.411Z,1021.79
2019-03-29T10:57:28.725Z,1021.68
2019-03-29T10:58:28.636Z,1021.61
2019-03-29T10:59:28.646Z,1021.66
2019-03-29T11:00:28.655Z,1021.78
2019-03-29T11:01:28.662Z,1021.69
2019-03-29T11:02:28.668Z,1021.65
2019-03-29T11:03:28.937Z,1021.62
2019-03-29T11:04:31.677Z,1021.67
2019-03-29T11:05:28.694Z,1021.62
2019-03-29T11:06:28.704Z,1021.49
2019-03-29T11:07:28.712Z,1021.42
2019-03-29T11:08:28.716Z,1021.44
2019-03-29T11:09:28.722Z,1021.48
2019-03-29T11:10:28.733Z,1021.37
2019-03-29T11:11:28.738Z,1021.37
2019-03-29T11:12:28.744Z,1021.34
2019-03-29T11:13:28.750Z,1021.31
2019-03-29T11:14:28.759Z,1021.28
2019-03-29T11:15:28.765Z,1021.27
2019-03-29T11:16:28.778Z,1021.32
2019-03-29T11:17:28.777Z,1021.36
2019-03-29T11:18:28.784Z,1021.38
2019-03-29T11:19:28.789Z,1021.38
2019-03-29T11:20:28.794Z,1021.33
2019-03-29T11:21:28.800Z,1021.32
2019-03-29T11:22:28.804Z,1021.21
2019-03-29T11:23:28.811Z,1021.15
2019-03-29T11:24:28.818Z,1021.15
2019-03-29T11:25:28.822Z,1021.23
2019-03-29T11:26:28.827Z,1021.20
2019-03-29T11:27:28.835Z,1021.18
2019-03-29T11:28:28.838Z,1021.09
2019-03-29T11:29:28.841Z,1021.03
2019-03-29T11:30:41.538Z,1021.01
2019-03-29T11:31:28.851Z,1021.00
2019-03-29T11:32:28.859Z,1021.06
2019-03-29T11:33:28.861Z,1021.02
2019-03-29T11:34:28.867Z,1021.14
2019-03-29T11:35:28.872Z,1021.15
2019-03-29T11:36:28.879Z,1021.12
2019-03-29T11:37:28.880Z,1021.07
2019-03-29T11:38:28.885Z,1020.98
2019-03-29T11:39:28.889Z,1020.90
2019-03-29T11:40:28.894Z,1020.90
2019-03-29T11:41:28.896Z,1020.95
2019-03-29T11:42:28.902Z,1021.00
2019-03-29T11:43:28.908Z,1021.04
2019-03-29T11:44:30.169Z,1021.08
2019-03-29T11:45:28.915Z,1021.07
2019-03-29T11:46:28.916Z,1021.15
2019-03-29T11:47:28.923Z,1021.11
2019-03-29T11:48:29.701Z,1020.97
2019-03-29T11:49:28.929Z,1020.84
2019-03-29T11:50:29.285Z,1020.81
2019-03-29T11:51:28.946Z,1020.78
2019-03-29T11:52:28.940Z,1020.76
2019-03-29T11:53:28.946Z,1020.80
2019-03-29T11:54:28.946Z,1020.70
2019-03-29T11:55:28.951Z,1020.68
2019-03-29T11:56:28.954Z,1020.67
2019-03-29T11:57:28.957Z,1020.62
2019-03-29T11:58:28.961Z,1020.64
2019-03-29T11:59:28.962Z,1020.61
2019-03-29T12:00:28.970Z,1020.61
2019-03-29T12:01:28.969Z,1020.60
2019-03-29T12:02:31.567Z,1020.65
2019-03-29T12:03:28.977Z,1020.59
2019-03-29T12:04:28.979Z,1020.61
2019-03-29T12:05:28.980Z,1020.57